createdAt,value
2022-08-28T00:00:25.705Z,10.98
2022-08-28T00:02:53.860Z,9.48
2022-08-28T00:05:23.298Z,13.73
2022-08-28T00:07:50.383Z,9.68
2022-08-28T00:10:20.752Z,11.40
2022-08-28T00:12:50.216Z,11.93
2022-08-28T00:15:21.976Z,10.30
2022-08-28T00:17:49.130Z,13.35
2022-08-28T00:20:19.023Z,9.63
2022-08-28T00:22:47.376Z,11.60
2022-08-28T00:25:15.778Z,16.05
2022-08-28T00:27:55.072Z,12.73
2022-08-28T00:30:28.139Z,14.25
2022-08-28T00:32:58.271Z,11.90
2022-08-28T00:35:25.361Z,10.98
2022-08-28T00:37:52.887Z,9.48
2022-08-28T00:40:28.622Z,10.00
2022-08-28T00:42:57.823Z,10.25
2022-08-28T00:45:26.607Z,12.70
2022-08-28T00:47:53.548Z,11.98
2022-08-28T00:50:24.062Z,11.95
2022-08-28T00:52:56.555Z,12.05
2022-08-28T00:55:26.621Z,9.70
2022-08-28T00:57:58.188Z,12.40
2022-08-28T01:00:36.384Z,14.43
2022-08-28T01:03:03.983Z,11.88
2022-08-28T01:05:31.044Z,13.10
2022-08-28T01:07:59.061Z,18.55
2022-08-28T01:10:28.710Z,9.88
2022-08-28T01:12:57.383Z,9.80
2022-08-28T01:15:35.015Z,11.20
2022-08-28T01:18:08.523Z,11.85
2022-08-28T01:20:39.723Z,12.55
2022-08-28T01:23:24.845Z,11.52
2022-08-28T01:25:52.458Z,12.13
2022-08-28T01:28:19.283Z,11.25
2022-08-28T01:33:15.784Z,13.98
2022-08-28T01:35:47.507Z,11.95
2022-08-28T01:38:20.182Z,8.18
2022-08-28T01:40:52.440Z,15.13
2022-08-28T01:43:21.810Z,10.20
2022-08-28T01:45:58.036Z,11.05
2022-08-28T01:48:26.318Z,11.02
2022-08-28T01:50:53.545Z,9.90
2022-08-28T01:53:24.789Z,9.70
2022-08-28T01:55:53.292Z,11.25
2022-08-28T01:58:20.549Z,10.30
2022-08-28T02:00:47.443Z,12.10
2022-08-28T02:03:14.356Z,11.40
2022-08-28T02:05:41.616Z,10.18
2022-08-28T02:08:08.850Z,12.00
2022-08-28T02:10:38.407Z,12.75
2022-08-28T02:13:07.787Z,9.43
2022-08-28T02:15:36.386Z,12.05
2022-08-28T02:18:03.359Z,10.82
2022-08-28T02:20:31.058Z,15.32
2022-08-28T02:22:58.649Z,10.00
2022-08-28T02:25:27.116Z,12.15
2022-08-28T02:27:54.380Z,10.55
2022-08-28T02:30:21.796Z,12.32
2022-08-28T02:32:49.999Z,10.30
2022-08-28T02:35:18.755Z,10.55
2022-08-28T02:37:46.029Z,10.15
2022-08-28T02:40:17.979Z,10.15
2022-08-28T02:42:45.180Z,12.27
2022-08-28T02:45:13.380Z,10.98
2022-08-28T02:47:42.325Z,8.98
2022-08-28T02:50:12.900Z,8.88
2022-08-28T02:52:40.519Z,12.43
2022-08-28T02:55:09.286Z,8.57
2022-08-28T02:57:36.270Z,8.13
2022-08-28T03:00:06.167Z,13.00
2022-08-28T03:02:32.981Z,10.00
2022-08-28T03:07:29.269Z,13.18
2022-08-28T03:09:56.583Z,13.13
2022-08-28T03:12:27.199Z,10.60
2022-08-28T03:14:55.062Z,9.05
2022-08-28T03:17:22.104Z,11.85
2022-08-28T03:19:50.136Z,10.65
2022-08-28T03:22:18.032Z,9.77
2022-08-28T03:24:44.975Z,8.77
2022-08-28T03:27:11.707Z,11.30
2022-08-28T03:29:38.618Z,10.43
2022-08-28T03:34:33.468Z,9.95
2022-08-28T03:37:01.148Z,11.93
2022-08-28T03:39:27.913Z,12.82
2022-08-28T03:41:54.917Z,7.40
2022-08-28T03:44:21.658Z,10.45
2022-08-28T03:46:48.424Z,11.65
2022-08-28T03:49:15.842Z,12.63
2022-08-28T03:51:43.774Z,8.38
2022-08-28T03:54:10.622Z,8.15
2022-08-28T03:59:05.283Z,10.75
2022-08-28T04:01:33.464Z,12.40
2022-08-28T04:04:00.667Z,9.80
2022-08-28T04:06:28.019Z,9.38
2022-08-28T04:08:55.298Z,8.73
2022-08-28T04:11:27.138Z,11.10
2022-08-28T04:13:53.863Z,9.48
2022-08-28T04:16:21.060Z,12.00
2022-08-28T04:18:49.548Z,9.23
2022-08-28T04:21:20.995Z,10.80
2022-08-28T04:23:48.107Z,13.02
2022-08-28T04:26:26.950Z,14.15
2022-08-28T04:28:55.968Z,16.33
2022-08-28T04:31:31.080Z,9.93
2022-08-28T04:34:01.802Z,11.15
2022-08-28T04:36:28.945Z,9.98
2022-08-28T04:38:57.612Z,7.55
2022-08-28T04:41:24.315Z,10.38
2022-08-28T04:43:52.749Z,15.55
2022-08-28T04:46:20.345Z,13.07
2022-08-28T04:48:47.134Z,14.95
2022-08-28T04:51:15.061Z,14.38
2022-08-28T04:53:42.589Z,19.40
2022-08-28T04:56:12.522Z,28.38
2022-08-28T04:58:40.558Z,36.80
2022-08-28T05:01:15.129Z,32.38
2022-08-28T05:03:42.195Z,42.60
2022-08-28T05:06:08.973Z,49.65
2022-08-28T05:08:35.784Z,31.45
2022-08-28T05:11:34.314Z,20.20
2022-08-28T05:14:06.648Z,12.13
2022-08-28T05:16:40.153Z,9.50
2022-08-28T05:19:06.947Z,12.50
2022-08-28T05:21:33.648Z,11.00
2022-08-28T05:24:00.441Z,11.10
2022-08-28T05:28:58.154Z,13.73
2022-08-28T05:31:25.884Z,13.20
2022-08-28T05:33:53.515Z,14.45
2022-08-28T05:36:22.842Z,11.40
2022-08-28T05:38:50.667Z,8.15
2022-08-28T05:41:25.488Z,9.15
2022-08-28T05:43:55.373Z,11.48
2022-08-28T05:46:23.142Z,14.70
2022-08-28T05:48:50.161Z,10.82
2022-08-28T05:51:20.230Z,9.40
2022-08-28T05:53:49.873Z,12.90
2022-08-28T05:56:21.195Z,7.90
2022-08-28T05:58:48.075Z,9.98
2022-08-28T06:01:20.659Z,8.50
2022-08-28T06:03:55.080Z,11.52
2022-08-28T06:06:24.416Z,7.95
2022-08-28T06:08:58.324Z,9.68
2022-08-28T06:11:30.578Z,14.20
2022-08-28T06:14:00.786Z,12.27
2022-08-28T06:16:29.606Z,10.80
2022-08-28T06:18:57.591Z,11.43
2022-08-28T06:21:24.713Z,9.07
2022-08-28T06:23:51.826Z,9.00
2022-08-28T06:26:18.617Z,10.63
2022-08-28T06:31:23.637Z,10.48
2022-08-28T06:33:53.957Z,9.00
2022-08-28T06:36:20.854Z,11.77
2022-08-28T06:41:15.460Z,11.10
2022-08-28T06:43:42.535Z,13.68
2022-08-28T06:46:09.320Z,12.82
2022-08-28T06:48:36.247Z,8.68
2022-08-28T06:51:06.574Z,7.63
2022-08-28T06:53:33.507Z,10.90
2022-08-28T06:56:13.685Z,10.93
2022-08-28T06:58:54.856Z,8.68
2022-08-28T07:01:29.549Z,8.35
2022-08-28T07:03:59.494Z,7.07
2022-08-28T07:06:27.593Z,9.40
2022-08-28T07:08:54.363Z,6.30
2022-08-28T07:11:26.438Z,12.40
2022-08-28T07:13:54.296Z,10.07
2022-08-28T07:16:24.902Z,8.07
2022-08-28T07:18:51.922Z,6.68
2022-08-28T07:21:18.699Z,6.97
2022-08-28T07:23:46.184Z,11.15
2022-08-28T07:26:16.130Z,12.93
2022-08-28T07:28:43.111Z,9.68
2022-08-28T07:31:21.186Z,8.77
2022-08-28T07:33:49.997Z,7.30
2022-08-28T07:38:58.157Z,6.95
2022-08-28T07:41:30.197Z,8.38
2022-08-28T07:44:16.138Z,10.15
2022-08-28T07:46:43.999Z,7.68
2022-08-28T07:49:11.524Z,8.38
2022-08-28T07:51:38.674Z,7.78
2022-08-28T07:54:05.604Z,7.63
2022-08-28T07:56:33.042Z,8.20
2022-08-28T07:59:02.472Z,8.02
2022-08-28T08:01:30.732Z,5.28
2022-08-28T08:04:01.502Z,13.57
2022-08-28T08:06:33.205Z,9.32
2022-08-28T08:09:02.245Z,5.75
2022-08-28T08:11:32.552Z,7.68
2022-08-28T08:14:07.702Z,6.15
2022-08-28T08:16:38.942Z,6.97
2022-08-28T08:19:09.563Z,6.25
2022-08-28T08:21:37.108Z,8.93
2022-08-28T08:24:04.032Z,11.55
2022-08-28T08:26:30.749Z,9.98
2022-08-28T08:28:58.061Z,7.55
2022-08-28T08:31:28.232Z,9.75
2022-08-28T08:34:03.872Z,6.88
2022-08-28T08:36:35.184Z,4.72
2022-08-28T08:39:01.942Z,9.13
2022-08-28T08:41:51.678Z,9.02
2022-08-28T08:44:43.413Z,8.27
2022-08-28T08:47:25.634Z,4.80
2022-08-28T08:50:00.271Z,10.18
2022-08-28T08:52:30.116Z,6.28
2022-08-28T08:55:15.020Z,5.88
2022-08-28T08:57:44.039Z,12.70
2022-08-28T09:00:16.211Z,5.88
2022-08-28T09:03:01.297Z,5.88
2022-08-28T09:05:58.064Z,8.90
2022-08-28T09:08:40.075Z,5.72
2022-08-28T09:11:36.487Z,6.32
2022-08-28T09:14:14.097Z,5.50
2022-08-28T09:16:45.505Z,7.45
2022-08-28T09:19:19.633Z,5.72
2022-08-28T09:21:47.426Z,5.80
2022-08-28T09:24:22.281Z,4.10
2022-08-28T09:26:56.234Z,7.30
2022-08-28T09:29:33.734Z,5.10
2022-08-28T09:32:18.288Z,7.88
2022-08-28T09:34:59.911Z,5.22
2022-08-28T09:37:29.912Z,3.85
2022-08-28T09:40:23.624Z,5.82
2022-08-28T09:43:27.595Z,5.43
2022-08-28T09:45:56.057Z,4.13
2022-08-28T09:48:31.812Z,5.72
2022-08-28T09:51:10.845Z,7.22
2022-08-28T09:54:01.692Z,5.10
2022-08-28T09:56:33.389Z,6.25
2022-08-28T09:59:05.562Z,7.70
2022-08-28T10:01:32.264Z,3.88
2022-08-28T10:04:05.435Z,3.55
2022-08-28T10:06:36.919Z,3.80
2022-08-28T10:09:30.048Z,5.00
2022-08-28T10:12:05.607Z,3.83
2022-08-28T10:14:50.405Z,4.18
2022-08-28T10:18:03.630Z,6.18
2022-08-28T10:20:36.025Z,5.97
2022-08-28T10:23:34.791Z,5.63
2022-08-28T10:26:25.208Z,7.43
2022-08-28T10:29:20.420Z,2.85
2022-08-28T10:32:24.915Z,4.90
2022-08-28T10:35:19.685Z,4.25
2022-08-28T10:38:08.709Z,4.95
2022-08-28T10:40:54.987Z,4.00
2022-08-28T10:43:37.086Z,6.72
2022-08-28T10:46:13.116Z,5.05
2022-08-28T10:48:46.270Z,5.18
2022-08-28T10:51:19.027Z,6.43
2022-08-28T10:54:07.644Z,4.70
2022-08-28T10:56:40.425Z,4.65
2022-08-28T11:01:38.257Z,5.57
2022-08-28T11:04:15.587Z,4.68
2022-08-28T11:06:48.039Z,4.40
2022-08-28T11:09:32.744Z,5.72
2022-08-28T11:12:27.372Z,4.70
2022-08-28T11:14:54.200Z,7.60
2022-08-28T11:17:27.641Z,5.85
2022-08-28T11:20:15.370Z,4.32
2022-08-28T11:22:51.681Z,4.50
2022-08-28T11:25:41.563Z,5.70
2022-08-28T11:28:39.344Z,3.65
2022-08-28T11:31:06.132Z,6.88
2022-08-28T11:33:52.409Z,4.85
2022-08-28T11:36:19.253Z,5.43
2022-08-28T11:38:46.389Z,5.57
2022-08-28T11:41:29.784Z,5.10
2022-08-28T11:44:12.439Z,6.00
2022-08-28T11:46:40.907Z,3.85
2022-08-28T11:49:26.428Z,4.32
2022-08-28T11:52:04.824Z,4.68
2022-08-28T11:54:57.811Z,4.57
2022-08-28T11:57:49.256Z,9.18
2022-08-28T12:00:50.377Z,5.63
2022-08-28T12:03:32.036Z,3.83
2022-08-28T12:06:00.482Z,6.38
2022-08-28T12:08:46.488Z,4.50
2022-08-28T12:11:49.048Z,4.05
2022-08-28T12:14:28.215Z,5.78
2022-08-28T12:17:07.464Z,3.90
2022-08-28T12:20:10.845Z,6.05
2022-08-28T12:22:53.049Z,5.97
2022-08-28T12:25:35.776Z,5.00
2022-08-28T12:28:19.960Z,4.03
2022-08-28T12:30:59.801Z,4.53
2022-08-28T12:33:36.216Z,4.57
2022-08-28T12:36:06.093Z,6.15
2022-08-28T12:38:34.395Z,4.85
2022-08-28T12:41:02.356Z,6.15
2022-08-28T12:43:44.314Z,3.45
2022-08-28T12:46:29.861Z,4.38
2022-08-28T12:49:02.648Z,3.00
2022-08-28T12:51:32.468Z,3.50
2022-08-28T12:54:07.310Z,3.72
2022-08-28T12:56:36.755Z,4.97
2022-08-28T12:59:32.356Z,2.67
2022-08-28T13:02:31.064Z,2.53
2022-08-28T13:05:05.403Z,4.47
2022-08-28T13:07:40.476Z,4.60
2022-08-28T13:10:21.164Z,8.73
2022-08-28T13:13:00.772Z,3.53
2022-08-28T13:15:53.511Z,3.75
2022-08-28T13:19:10.521Z,4.47
2022-08-28T13:21:52.064Z,4.32
2022-08-28T13:24:21.912Z,3.83
2022-08-28T13:26:58.551Z,5.50
2022-08-28T13:29:25.264Z,3.88
2022-08-28T13:32:04.249Z,4.38
2022-08-28T13:34:34.046Z,3.63
2022-08-28T13:37:14.671Z,7.18
2022-08-28T13:39:47.550Z,4.35
2022-08-28T13:42:16.826Z,3.85
2022-08-28T13:44:49.203Z,3.38
2022-08-28T13:47:17.167Z,7.28
2022-08-28T13:49:43.912Z,5.18
2022-08-28T13:52:11.208Z,3.55
2022-08-28T13:54:39.235Z,5.68
2022-08-28T13:57:10.688Z,3.58
2022-08-28T13:59:40.359Z,3.35
2022-08-28T14:02:29.512Z,4.18
2022-08-28T14:04:56.254Z,4.38
2022-08-28T14:07:23.540Z,4.53
2022-08-28T14:09:55.541Z,4.90
2022-08-28T14:12:23.202Z,5.70
2022-08-28T14:14:59.949Z,5.22
2022-08-28T14:17:26.742Z,6.10
2022-08-28T14:19:53.492Z,2.95
2022-08-28T14:22:20.156Z,7.95
2022-08-28T14:24:46.804Z,5.93
2022-08-28T14:27:13.592Z,5.90
2022-08-28T14:29:40.281Z,5.15
2022-08-28T14:32:07.614Z,4.03
2022-08-28T14:34:34.718Z,4.72
2022-08-28T14:37:01.952Z,5.00
2022-08-28T14:39:28.962Z,3.75
2022-08-28T14:41:55.895Z,5.90
2022-08-28T14:44:24.940Z,5.40
2022-08-28T14:46:52.833Z,5.43
2022-08-28T14:49:24.167Z,4.95
2022-08-28T14:51:51.519Z,5.93
2022-08-28T14:54:24.248Z,5.25
2022-08-28T14:56:53.413Z,7.80
2022-08-28T14:59:25.927Z,5.30
2022-08-28T15:01:55.144Z,4.47
2022-08-28T15:04:24.048Z,4.95
2022-08-28T15:06:55.435Z,4.03
2022-08-28T15:09:22.128Z,6.55
2022-08-28T15:11:48.804Z,4.55
2022-08-28T15:14:15.646Z,3.40
2022-08-28T15:16:45.369Z,5.75
2022-08-28T15:19:15.925Z,4.38
2022-08-28T15:21:49.991Z,4.25
2022-08-28T15:24:20.114Z,5.53
2022-08-28T15:26:46.860Z,6.07
2022-08-28T15:29:13.917Z,4.80
2022-08-28T15:31:43.672Z,4.05
2022-08-28T15:34:18.040Z,4.28
2022-08-28T15:36:55.105Z,4.97
2022-08-28T15:39:53.760Z,3.70
2022-08-28T15:42:20.556Z,3.53
2022-08-28T15:44:47.302Z,5.50
2022-08-28T15:47:14.767Z,8.93
2022-08-28T15:49:48.688Z,5.40
2022-08-28T15:52:19.039Z,4.30
2022-08-28T15:54:45.967Z,5.07
2022-08-28T15:57:12.687Z,5.45
2022-08-28T15:59:48.698Z,4.60
2022-08-28T16:02:19.105Z,5.38
2022-08-28T16:04:45.846Z,5.10
2022-08-28T16:07:12.621Z,7.45
2022-08-28T16:09:39.300Z,4.35
2022-08-28T16:12:06.237Z,4.72
2022-08-28T16:14:33.605Z,4.75
2022-08-28T16:17:06.050Z,4.20
2022-08-28T16:19:38.996Z,3.42
2022-08-28T16:22:05.775Z,4.40
2022-08-28T16:24:32.491Z,5.07
2022-08-28T16:26:59.238Z,5.35
2022-08-28T16:29:26.247Z,6.90
2022-08-28T16:31:53.105Z,5.30
2022-08-28T16:34:20.361Z,6.25
2022-08-28T16:36:48.142Z,4.57
2022-08-28T16:39:15.020Z,4.72
2022-08-28T16:41:43.039Z,6.20
2022-08-28T16:44:09.890Z,5.28
2022-08-28T16:46:36.573Z,15.18
2022-08-28T16:49:03.792Z,6.20
2022-08-28T16:51:30.643Z,7.22
2022-08-28T16:53:57.932Z,5.50
2022-08-28T16:56:26.416Z,5.60
2022-08-28T16:58:53.453Z,3.85
2022-08-28T17:01:21.972Z,3.83
2022-08-28T17:03:52.277Z,5.47
2022-08-28T17:06:23.383Z,5.50
2022-08-28T17:08:55.895Z,5.40
2022-08-28T17:11:25.282Z,3.78
2022-08-28T17:13:52.109Z,3.40
2022-08-28T17:16:20.551Z,3.95
2022-08-28T17:18:52.657Z,3.20
2022-08-28T17:21:39.510Z,5.95
2022-08-28T17:24:06.841Z,4.57
2022-08-28T17:26:33.765Z,4.68
2022-08-28T17:29:00.450Z,4.53
2022-08-28T17:31:27.283Z,6.38
2022-08-28T17:33:54.264Z,3.63
2022-08-28T17:36:32.499Z,5.72
2022-08-28T17:39:02.497Z,3.53
2022-08-28T17:41:29.199Z,3.83
2022-08-28T17:43:55.871Z,2.63
2022-08-28T17:46:22.607Z,3.38
2022-08-28T17:48:54.393Z,3.85
2022-08-28T17:51:40.428Z,4.50
2022-08-28T17:54:11.390Z,3.28
2022-08-28T17:56:38.083Z,5.72
2022-08-28T17:59:05.013Z,4.00
2022-08-28T18:01:31.810Z,3.58
2022-08-28T18:03:58.528Z,3.90
2022-08-28T18:06:25.277Z,4.03
2022-08-28T18:08:52.033Z,3.88
2022-08-28T18:11:19.314Z,4.30
2022-08-28T18:13:46.383Z,7.10
2022-08-28T18:16:13.276Z,4.95
2022-08-28T18:18:41.073Z,6.85
2022-08-28T18:21:10.240Z,4.95
2022-08-28T18:23:37.395Z,5.88
2022-08-28T18:26:04.139Z,4.30
2022-08-28T18:28:32.222Z,2.85
2022-08-28T18:31:00.643Z,2.30
2022-08-28T18:33:27.396Z,4.50
2022-08-28T18:35:54.124Z,3.55
2022-08-28T18:38:22.815Z,4.75
2022-08-28T18:40:50.160Z,4.85
2022-08-28T18:43:20.130Z,3.78
2022-08-28T18:45:47.218Z,4.60
2022-08-28T18:48:14.689Z,9.35
2022-08-28T18:50:46.169Z,6.80
2022-08-28T18:53:17.472Z,3.60
2022-08-28T18:55:45.764Z,3.38
2022-08-28T18:58:15.252Z,4.10
2022-08-28T19:00:42.751Z,5.50
2022-08-28T19:03:10.356Z,5.13
2022-08-28T19:05:38.596Z,4.15
2022-08-28T19:08:05.800Z,4.75
2022-08-28T19:10:34.744Z,5.30
2022-08-28T19:13:02.577Z,4.97
2022-08-28T19:15:30.219Z,6.07
2022-08-28T19:17:57.560Z,3.45
2022-08-28T19:20:24.368Z,3.83
2022-08-28T19:22:51.497Z,5.68
2022-08-28T19:25:22.409Z,4.57
2022-08-28T19:27:56.433Z,5.57
2022-08-28T19:30:27.815Z,4.65
2022-08-28T19:32:54.968Z,4.43
2022-08-28T19:35:24.119Z,6.57
2022-08-28T19:37:52.388Z,4.55
2022-08-28T19:40:20.482Z,7.57
2022-08-28T19:42:47.396Z,6.10
2022-08-28T19:45:14.979Z,4.57
2022-08-28T19:47:41.982Z,5.13
2022-08-28T19:50:11.510Z,5.13
2022-08-28T19:52:38.699Z,4.78
2022-08-28T19:55:06.671Z,6.25
2022-08-28T19:57:34.184Z,4.95
2022-08-28T20:00:01.729Z,5.13
2022-08-28T20:02:30.968Z,8.23
2022-08-28T20:04:57.731Z,9.65
2022-08-28T20:07:24.916Z,6.55
2022-08-28T20:09:52.270Z,4.88
2022-08-28T20:12:19.299Z,6.65
2022-08-28T20:14:46.187Z,6.38
2022-08-28T20:17:13.844Z,4.75
2022-08-28T20:19:41.127Z,4.85
2022-08-28T20:22:07.907Z,5.35
2022-08-28T20:24:34.920Z,4.45
2022-08-28T20:27:01.660Z,5.38
2022-08-28T20:29:29.117Z,4.45
2022-08-28T20:31:55.843Z,4.95
2022-08-28T20:34:23.321Z,4.68
2022-08-28T20:36:50.464Z,5.55
2022-08-28T20:39:17.715Z,5.45
2022-08-28T20:41:45.859Z,4.80
2022-08-28T20:44:15.420Z,5.57
2022-08-28T20:46:42.553Z,6.63
2022-08-28T20:49:11.110Z,6.05
2022-08-28T20:51:53.498Z,6.60
2022-08-28T20:54:22.230Z,5.38
2022-08-28T20:56:49.887Z,4.47
2022-08-28T20:59:16.906Z,4.57
2022-08-28T21:01:43.717Z,6.40
2022-08-28T21:04:10.540Z,6.55
2022-08-28T21:06:38.203Z,8.05
2022-08-28T21:09:04.893Z,7.05
2022-08-28T21:11:31.547Z,6.72
2022-08-28T21:13:58.264Z,10.90
2022-08-28T21:16:25.501Z,5.38
2022-08-28T21:19:14.116Z,6.68
2022-08-28T21:21:39.832Z,9.82
2022-08-28T21:24:09.175Z,3.97
2022-08-28T21:26:38.824Z,4.78
2022-08-28T21:29:06.683Z,8.65
2022-08-28T21:31:33.949Z,3.92
2022-08-28T21:34:00.743Z,7.22
2022-08-28T21:36:27.568Z,7.28
2022-08-28T21:38:55.856Z,5.00
2022-08-28T21:41:22.636Z,5.65
2022-08-28T21:43:49.608Z,4.20
2022-08-28T21:46:16.871Z,9.52
2022-08-28T21:48:48.315Z,5.50
2022-08-28T21:51:16.451Z,5.88
2022-08-28T21:53:43.980Z,5.07
2022-08-28T21:56:11.492Z,6.28
2022-08-28T21:58:38.675Z,7.03
2022-08-28T22:01:05.575Z,9.32
2022-08-28T22:03:32.618Z,5.07
2022-08-28T22:05:59.319Z,6.60
2022-08-28T22:08:28.539Z,7.15
2022-08-28T22:10:56.282Z,4.72
2022-08-28T22:13:23.494Z,5.47
2022-08-28T22:15:50.196Z,7.80
2022-08-28T22:18:17.485Z,7.43
2022-08-28T22:21:05.026Z,4.38
2022-08-28T22:23:34.981Z,6.45
2022-08-28T22:26:03.967Z,4.88
2022-08-28T22:28:31.026Z,7.00
2022-08-28T22:30:58.255Z,5.40
2022-08-28T22:33:26.480Z,6.25
2022-08-28T22:35:53.357Z,4.85
2022-08-28T22:38:22.366Z,3.65
2022-08-28T22:40:49.204Z,6.10
2022-08-28T22:43:17.508Z,5.53
2022-08-28T22:45:48.422Z,5.28
2022-08-28T22:48:17.329Z,7.35
2022-08-28T22:50:45.586Z,5.57
2022-08-28T22:53:12.373Z,7.45
2022-08-28T22:55:43.314Z,5.80
2022-08-28T22:58:11.219Z,8.80
2022-08-28T23:00:40.042Z,4.15
2022-08-28T23:03:06.830Z,6.78
2022-08-28T23:05:33.886Z,5.00
2022-08-28T23:08:00.656Z,4.05
2022-08-28T23:10:48.187Z,4.72
2022-08-28T23:13:15.114Z,5.88
2022-08-28T23:15:43.323Z,6.72
2022-08-28T23:18:10.582Z,6.55
2022-08-28T23:20:37.587Z,5.40
2022-08-28T23:23:04.247Z,6.38
2022-08-28T23:25:30.944Z,7.70
2022-08-28T23:27:57.811Z,7.10
2022-08-28T23:30:25.224Z,3.92
2022-08-28T23:32:52.768Z,5.07
2022-08-28T23:35:20.475Z,6.20
2022-08-28T23:37:51.848Z,4.88
2022-08-28T23:40:22.516Z,4.53
2022-08-28T23:42:50.321Z,6.72
2022-08-28T23:45:17.457Z,5.45
2022-08-28T23:47:45.460Z,7.00
2022-08-28T23:50:16.314Z,5.82
2022-08-28T23:52:43.222Z,5.75
2022-08-28T23:55:12.682Z,5.68
2022-08-28T23:57:39.530Z,5.78
